Time;durP1;ratioP1;P1;durP2;ratioP2;P2;SDS_P1;SDS_P2;PMS_P1;PMS_P2;Temp;Humidity;BMP_temperature;BMP_pressure;BME280_temperature;BME280_humidity;BME280_pressure;Samples;Min_cycle;Max_cycle;Signal;HPM_P1;HPM_P2
2024/04/09 00:00:11;;;;;;;19.57;4.80;;;15.40;64.00;;;;;;2206286;26;20286;-69
2024/04/09 00:01:12;;;;;;;15.67;3.67;;;15.30;64.60;;;;;;2192417;26;20220;-69
2024/04/09 00:02:13;;;;;;;16.97;3.80;;;15.30;65.60;;;;;;2215753;26;20438;-69
2024/04/09 00:03:16;;;;;;;14.80;3.90;;;15.30;64.20;;;;;;2219298;26;21043;-70
2024/04/09 00:04:17;;;;;;;16.23;3.90;;;15.30;64.30;;;;;;2193715;26;20476;-70
2024/04/09 00:05:19;;;;;;;13.97;3.03;;;15.20;64.30;;;;;;2199104;26;20447;-69
2024/04/09 00:06:20;;;;;;;17.23;4.17;;;15.20;64.40;;;;;;2221201;26;20218;-69
2024/04/09 00:07:21;;;;;;;17.57;3.77;;;15.20;64.70;;;;;;2214446;26;20513;-69
2024/04/09 00:08:22;;;;;;;11.67;3.27;;;15.20;64.70;;;;;;2192841;26;20267;-70
2024/04/09 00:09:22;;;;;;;19.93;4.23;;;15.20;65.10;;;;;;2191921;26;21064;-70
2024/04/09 00:10:23;;;;;;;21.40;4.57;;;15.20;63.90;;;;;;2198927;26;20269;-69
2024/04/09 00:11:24;;;;;;;16.40;4.30;;;15.30;62.20;;;;;;2220774;26;20266;-69
2024/04/09 00:12:25;;;;;;;23.60;4.33;;;15.20;62.40;;;;;;2217884;26;20852;-70
2024/04/09 00:13:26;;;;;;;19.60;3.57;;;15.20;63.10;;;;;;2192256;26;20314;-69
2024/04/09 00:14:30;;;;;;;13.13;3.53;;;15.10;64.50;;;;;;2192761;26;20764;-70
2024/04/09 00:15:33;;;;;;;16.70;3.47;;;15.20;65.40;;;;;;2205344;26;20501;-69
2024/04/09 00:16:39;;;;;;;15.10;3.43;;;15.20;65.70;;;;;;2200356;26;20553;-69
2024/04/09 00:17:54;;;;;;;16.70;4.03;;;15.20;64.80;;;;;;2207424;26;20501;-69
2024/04/09 00:18:55;;;;;;;15.40;3.87;;;15.20;63.90;;;;;;2206255;26;21080;-70
2024/04/09 00:19:56;;;;;;;14.83;3.93;;;15.10;64.10;;;;;;2191959;26;20550;-69
2024/04/09 00:20:57;;;;;;;17.77;3.60;;;15.00;64.70;;;;;;2177793;26;20301;-69
2024/04/09 00:21:59;;;;;;;19.27;3.53;;;15.00;64.80;;;;;;2205954;26;20466;-69
2024/04/09 00:22:59;;;;;;;19.60;3.67;;;15.00;65.10;;;;;;2205099;26;20497;-69
2024/04/09 00:24:00;;;;;;;15.07;3.80;;;15.00;65.40;;;;;;2206246;26;20905;-69
2024/04/09 00:25:03;;;;;;;14.03;3.60;;;14.90;65.90;;;;;;2203345;26;20314;-69
2024/04/09 00:26:04;;;;;;;20.97;4.70;;;14.90;65.20;;;;;;2219744;26;20363;-70
2024/04/09 00:27:06;;;;;;;15.07;4.23;;;15.00;64.60;;;;;;2233480;26;20463;-69
2024/04/09 00:28:07;;;;;;;15.73;3.27;;;15.00;64.70;;;;;;2225446;26;20272;-69
2024/04/09 00:29:10;;;;;;;12.47;3.53;;;15.10;64.70;;;;;;2206937;26;20457;-69
2024/04/09 00:30:12;;;;;;;15.07;3.70;;;15.10;64.80;;;;;;2165969;27;20324;-70
2024/04/09 00:31:13;;;;;;;12.47;3.30;;;15.10;64.90;;;;;;2187118;26;20994;-70
2024/04/09 00:32:13;;;;;;;13.33;3.47;;;15.10;64.30;;;;;;2207739;26;20501;-69
2024/04/09 00:33:17;;;;;;;15.83;3.77;;;15.20;64.40;;;;;;2193601;26;20586;-69
2024/04/09 00:34:17;;;;;;;14.03;3.23;;;15.10;64.30;;;;;;2194059;26;20625;-69
2024/04/09 00:35:21;;;;;;;16.63;3.50;;;15.10;63.30;;;;;;2203701;26;20447;-69
2024/04/09 00:36:21;;;;;;;15.20;3.30;;;15.00;64.80;;;;;;2231610;26;20313;-69
2024/04/09 00:37:22;;;;;;;16.23;4.23;;;15.00;63.80;;;;;;2230757;26;21242;-70
2024/04/09 00:38:23;;;;;;;16.63;3.77;;;14.90;63.60;;;;;;2207426;26;20271;-69
2024/04/09 00:39:26;;;;;;;14.83;3.60;;;14.90;64.90;;;;;;2194376;26;20586;-70
2024/04/09 00:40:29;;;;;;;17.17;3.83;;;14.80;66.30;;;;;;2183053;26;20319;-69
2024/04/09 00:41:30;;;;;;;18.40;4.47;;;14.80;63.10;;;;;;2184601;26;20545;-69
2024/04/09 00:42:31;;;;;;;21.20;4.47;;;14.70;63.10;;;;;;2201504;26;20570;-69
2024/04/09 00:43:31;;;;;;;15.40;3.50;;;14.70;60.10;;;;;;2207559;26;20505;-69
2024/04/09 00:44:32;;;;;;;19.23;4.20;;;14.70;60.10;;;;;;2207933;26;20631;-69
2024/04/09 00:45:33;;;;;;;16.97;3.47;;;14.70;60.80;;;;;;2206446;26;20406;-69
2024/04/09 00:46:34;;;;;;;18.83;3.73;;;14.80;60.00;;;;;;2193193;26;20390;-69
2024/04/09 00:47:35;;;;;;;19.10;4.60;;;14.80;60.00;;;;;;2206983;26;20345;-69
2024/04/09 00:48:35;;;;;;;19.00;3.63;;;14.90;57.80;;;;;;2207915;26;20279;-70
2024/04/09 00:49:36;;;;;;;18.13;3.73;;;15.00;58.10;;;;;;2207654;26;20266;-70
2024/04/09 00:50:41;;;;;;;15.00;4.03;;;15.00;58.00;;;;;;2178494;26;20289;-69
2024/04/09 00:51:47;;;;;;;19.43;4.23;;;15.00;60.30;;;;;;2203810;26;20271;-69
2024/04/09 00:52:48;;;;;;;14.90;4.00;;;15.00;60.50;;;;;;2216488;26;20545;-69
2024/04/09 00:53:50;;;;;;;18.03;3.70;;;15.00;60.90;;;;;;2206206;26;20552;-70
2024/04/09 00:54:52;;;;;;;18.07;4.17;;;15.00;61.50;;;;;;2207481;26;20266;-69
2024/04/09 00:55:54;;;;;;;13.80;3.57;;;15.10;61.50;;;;;;2192861;26;20803;-69
2024/04/09 00:56:57;;;;;;;14.50;3.60;;;15.10;61.10;;;;;;2192224;26;20511;-70
2024/04/09 00:58:03;;;;;;;14.57;3.00;;;15.10;61.50;;;;;;2191579;26;20507;-69
2024/04/09 00:59:04;;;;;;;20.77;3.07;;;15.10;58.20;;;;;;2204520;26;20469;-69
2024/04/09 01:00:12;;;;;;;14.10;2.70;;;15.10;56.60;;;;;;2222227;26;20520;-69
2024/04/09 01:01:16;;;;;;;14.63;2.90;;;15.20;57.10;;;;;;2226583;26;20526;-69
2024/04/09 01:02:17;;;;;;;15.27;3.40;;;15.20;54.10;;;;;;2207040;26;21052;-69
2024/04/09 01:03:17;;;;;;;19.43;3.43;;;15.30;56.70;;;;;;2192680;26;20499;-69
2024/04/09 01:04:19;;;;;;;18.63;3.53;;;15.30;58.60;;;;;;2193357;26;20224;-69
2024/04/09 01:05:20;;;;;;;13.43;3.70;;;15.20;61.20;;;;;;2192747;26;20642;-69
2024/04/09 01:06:21;;;;;;;16.67;3.87;;;15.30;62.30;;;;;;2206854;26;20517;-69
2024/04/09 01:07:22;;;;;;;14.90;3.30;;;15.20;62.30;;;;;;2230668;26;20500;-70
2024/04/09 01:08:23;;;;;;;17.27;3.07;;;15.20;62.50;;;;;;2203540;26;20268;-70
2024/04/09 01:09:24;;;;;;;14.90;3.27;;;15.20;62.20;;;;;;2188885;26;20860;-69
2024/04/09 01:10:25;;;;;;;11.73;3.20;;;15.10;58.00;;;;;;2202078;26;20265;-69
2024/04/09 01:11:26;;;;;;;14.53;3.60;;;15.10;56.00;;;;;;2202527;26;20740;-70
2024/04/09 01:12:26;;;;;;;19.47;3.00;;;15.10;53.10;;;;;;2231677;26;20492;-69
2024/04/09 01:13:27;;;;;;;14.50;3.80;;;15.20;53.30;;;;;;2229913;26;20397;-70
2024/04/09 01:14:28;;;;;;;12.87;3.07;;;15.20;52.10;;;;;;2202417;26;20305;-70
2024/04/09 01:15:28;;;;;;;16.07;3.37;;;15.20;52.70;;;;;;2191648;26;20320;-69
2024/04/09 01:16:29;;;;;;;15.33;3.50;;;15.30;51.80;;;;;;2192798;26;20656;-70
2024/04/09 01:17:30;;;;;;;15.70;3.20;;;15.30;50.20;;;;;;2200546;26;20314;-69
2024/04/09 01:18:30;;;;;;;11.63;3.20;;;15.20;48.70;;;;;;2206854;26;20270;-70
2024/04/09 01:19:31;;;;;;;14.07;3.00;;;15.20;49.10;;;;;;2178104;26;20325;-70
2024/04/09 01:20:32;;;;;;;15.27;4.17;;;15.10;50.10;;;;;;2205021;26;20628;-70
2024/04/09 01:21:33;;;;;;;17.60;3.23;;;15.10;49.80;;;;;;2234669;26;20707;-70
2024/04/09 01:22:33;;;;;;;12.03;2.80;;;15.20;49.70;;;;;;2206165;26;20317;-69
2024/04/09 01:23:34;;;;;;;9.87;2.83;;;15.20;51.00;;;;;;2206597;26;20314;-69
2024/04/09 01:24:35;;;;;;;16.33;3.40;;;15.20;52.00;;;;;;2207707;26;20298;-70
2024/04/09 01:25:36;;;;;;;17.47;3.23;;;15.30;52.50;;;;;;2205538;26;20271;-70
2024/04/09 01:26:37;;;;;;;13.63;3.47;;;15.20;53.60;;;;;;2206802;26;20505;-69
2024/04/09 01:27:39;;;;;;;13.80;4.00;;;15.20;54.40;;;;;;2207422;26;20361;-70
2024/04/09 01:28:39;;;;;;;13.90;3.00;;;15.10;54.40;;;;;;2206477;26;20317;-70
2024/04/09 01:29:41;;;;;;;11.10;3.07;;;15.20;54.40;;;;;;2177949;26;20556;-69
2024/04/09 01:30:43;;;;;;;14.67;3.20;;;15.10;54.60;;;;;;2200628;26;20271;-70
2024/04/09 01:31:44;;;;;;;13.43;2.97;;;15.00;55.10;;;;;;2231214;26;20557;-70
2024/04/09 01:32:45;;;;;;;16.43;3.33;;;15.00;52.90;;;;;;2205090;26;20514;-70
2024/04/09 01:33:46;;;;;;;14.80;2.50;;;14.90;52.80;;;;;;2204858;26;21031;-69
2024/04/09 01:34:47;;;;;;;13.53;3.27;;;14.80;53.70;;;;;;2193658;26;20507;-69
2024/04/09 01:35:51;;;;;;;13.60;3.13;;;14.70;53.80;;;;;;2205202;26;20278;-69
2024/04/09 01:36:51;;;;;;;14.50;3.03;;;14.80;54.80;;;;;;2188991;26;20503;-70
2024/04/09 01:37:52;;;;;;;13.73;2.80;;;14.80;53.10;;;;;;2203370;26;20509;-69
2024/04/09 01:38:53;;;;;;;12.77;3.60;;;14.80;53.70;;;;;;2238424;26;20269;-70
2024/04/09 01:39:54;;;;;;;17.80;3.73;;;14.80;53.30;;;;;;2206413;26;20739;-70
2024/04/09 01:40:55;;;;;;;17.13;3.60;;;14.80;52.20;;;;;;2216031;26;20504;-70
2024/04/09 01:41:56;;;;;;;16.60;3.33;;;14.80;52.20;;;;;;2216647;26;21051;-70
2024/04/09 01:42:56;;;;;;;11.57;2.87;;;14.80;51.80;;;;;;2214551;26;20448;-69
2024/04/09 01:43:57;;;;;;;18.97;3.27;;;14.80;51.80;;;;;;2230317;26;20328;-70
2024/04/09 01:44:58;;;;;;;15.57;3.20;;;14.80;51.70;;;;;;2229967;26;20383;-69
2024/04/09 01:45:59;;;;;;;13.63;2.97;;;14.80;52.90;;;;;;2215656;26;20266;-69
2024/04/09 01:46:59;;;;;;;12.53;4.20;;;14.80;51.80;;;;;;2201950;26;20267;-70
2024/04/09 01:48:00;;;;;;;14.37;2.97;;;14.80;53.50;;;;;;2219521;26;20269;-69
2024/04/09 01:49:03;;;;;;;13.73;3.20;;;14.90;52.10;;;;;;2219318;26;22408;-70
2024/04/09 01:50:05;;;;;;;9.87;3.07;;;14.90;51.00;;;;;;2200088;26;20292;-69
2024/04/09 01:51:12;;;;;;;13.03;3.43;;;14.90;50.70;;;;;;2187252;26;20470;-69
2024/04/09 01:52:14;;;;;;;12.97;3.20;;;15.00;50.30;;;;;;2187430;26;20595;-70
2024/04/09 01:53:14;;;;;;;15.40;2.90;;;15.00;44.40;;;;;;2205951;26;20522;-69
2024/04/09 01:54:15;;;;;;;13.43;3.30;;;15.10;43.70;;;;;;2230022;26;20947;-70
2024/04/09 01:55:17;;;;;;;19.57;3.17;;;15.10;42.10;;;;;;2213324;26;20258;-70
2024/04/09 01:56:18;;;;;;;15.97;3.10;;;15.10;40.50;;;;;;2206790;26;20299;-70
2024/04/09 01:57:19;;;;;;;23.97;3.40;;;15.20;40.40;;;;;;2206030;26;20449;-70
2024/04/09 01:58:20;;;;;;;9.30;2.87;;;15.40;40.70;;;;;;2207534;26;20446;-69
2024/04/09 01:59:21;;;;;;;14.13;3.37;;;15.40;42.10;;;;;;2206708;26;20300;-69
2024/04/09 02:00:22;;;;;;;15.47;3.27;;;15.40;41.60;;;;;;2205802;26;20494;-69
2024/04/09 02:01:23;;;;;;;23.63;4.53;;;15.50;42.80;;;;;;2191690;26;20506;-69
2024/04/09 02:02:24;;;;;;;24.60;3.73;;;15.50;43.10;;;;;;2195303;26;20276;-69
2024/04/09 02:03:25;;;;;;;23.00;4.13;;;15.50;43.60;;;;;;2209203;26;20268;-69
2024/04/09 02:04:29;;;;;;;22.67;3.97;;;15.60;43.10;;;;;;2220598;26;20278;-69
2024/04/09 02:05:36;;;;;;;17.10;4.03;;;15.80;42.30;;;;;;2212819;26;20560;-69
2024/04/09 02:06:37;;;;;;;26.83;4.40;;;15.80;42.20;;;;;;2198578;26;20629;-69
2024/04/09 02:07:38;;;;;;;18.53;4.03;;;15.90;41.80;;;;;;2220262;26;20626;-69
2024/04/09 02:08:39;;;;;;;34.03;4.63;;;16.00;41.70;;;;;;2220452;26;20264;-69
2024/04/09 02:09:40;;;;;;;21.33;5.53;;;16.10;40.90;;;;;;2206156;26;20498;-69
2024/04/09 02:10:41;;;;;;;17.33;3.70;;;16.20;40.80;;;;;;2202567;26;21000;-68
2024/04/09 02:11:42;;;;;;;25.00;4.73;;;16.30;40.70;;;;;;2202605;26;20270;-69
2024/04/09 02:12:43;;;;;;;19.47;4.07;;;16.30;40.40;;;;;;2202939;26;20559;-69
2024/04/09 02:13:47;;;;;;;25.30;5.00;;;16.40;40.10;;;;;;2217161;26;20274;-70
2024/04/09 02:14:48;;;;;;;27.67;5.53;;;16.40;39.60;;;;;;2216385;26;20839;-69
2024/04/09 02:15:49;;;;;;;14.13;3.43;;;16.50;39.10;;;;;;2205735;26;20509;-69
2024/04/09 02:16:50;;;;;;;24.27;5.50;;;16.60;39.00;;;;;;2187186;26;20646;-69
2024/04/09 02:17:51;;;;;;;21.33;4.17;;;16.70;38.70;;;;;;2201648;26;20349;-69
2024/04/09 02:18:51;;;;;;;18.60;3.73;;;16.70;38.70;;;;;;2206059;26;20271;-69
2024/04/09 02:19:52;;;;;;;19.10;4.17;;;16.80;38.80;;;;;;2205912;26;20283;-69
2024/04/09 02:20:53;;;;;;;19.03;4.50;;;16.80;38.70;;;;;;2204153;26;20271;-69
2024/04/09 02:21:53;;;;;;;22.57;4.23;;;16.80;39.00;;;;;;2202683;26;20813;-69
2024/04/09 02:22:54;;;;;;;23.30;4.87;;;16.80;39.00;;;;;;2228694;26;20314;-69
2024/04/09 02:23:55;;;;;;;14.43;3.73;;;16.80;38.50;;;;;;2214404;26;20284;-69
2024/04/09 02:24:55;;;;;;;19.07;4.30;;;16.80;38.70;;;;;;2200476;26;20706;-69
2024/04/09 02:25:56;;;;;;;24.83;5.23;;;16.80;38.60;;;;;;2227168;26;20269;-69
2024/04/09 02:26:57;;;;;;;17.60;3.87;;;16.80;38.50;;;;;;2228508;26;20307;-69
2024/04/09 02:27:58;;;;;;;18.93;4.07;;;16.70;38.40;;;;;;2200411;26;20326;-69
2024/04/09 02:29:00;;;;;;;18.40;4.47;;;16.70;38.50;;;;;;2198813;26;20266;-69
2024/04/09 02:30:02;;;;;;;18.67;3.70;;;16.80;38.70;;;;;;2218674;26;20341;-69
2024/04/09 02:31:07;;;;;;;16.17;3.80;;;16.80;38.60;;;;;;2232178;26;20581;-69
2024/04/09 02:32:10;;;;;;;30.07;4.07;;;16.80;38.10;;;;;;2206913;26;20529;-69
2024/04/09 02:33:13;;;;;;;21.33;3.83;;;16.80;38.20;;;;;;2206168;26;20940;-69
2024/04/09 02:34:13;;;;;;;21.47;4.53;;;16.80;38.20;;;;;;2205709;26;21496;-69
2024/04/09 02:35:15;;;;;;;18.80;4.33;;;16.70;38.40;;;;;;2206502;26;20445;-69
2024/04/09 02:36:16;;;;;;;16.80;3.30;;;16.70;38.20;;;;;;2191870;26;20271;-69
2024/04/09 02:37:17;;;;;;;22.10;4.20;;;16.70;37.90;;;;;;2192318;26;20447;-69
2024/04/09 02:38:18;;;;;;;20.43;4.67;;;16.70;38.00;;;;;;2191861;26;20267;-70
2024/04/09 02:39:19;;;;;;;22.10;3.50;;;16.70;38.10;;;;;;2207473;26;20291;-69
2024/04/09 02:40:20;;;;;;;25.23;4.53;;;16.70;37.90;;;;;;2206767;26;20537;-69
2024/04/09 02:41:20;;;;;;;16.00;4.17;;;16.80;38.10;;;;;;2191932;26;21321;-69
2024/04/09 02:42:21;;;;;;;15.40;3.33;;;16.80;37.50;;;;;;2206186;26;20286;-69
2024/04/09 02:43:23;;;;;;;20.10;3.90;;;16.80;37.50;;;;;;2188443;26;20304;-69
2024/04/09 02:44:24;;;;;;;16.60;3.23;;;16.90;37.30;;;;;;2178710;26;20273;-69
2024/04/09 02:45:24;;;;;;;19.07;3.80;;;16.90;37.60;;;;;;2193063;26;20512;-69
2024/04/09 02:46:25;;;;;;;19.63;4.23;;;16.90;37.80;;;;;;2202064;26;20503;-69
2024/04/09 02:47:26;;;;;;;18.20;3.67;;;16.90;37.40;;;;;;2205823;26;20329;-69
2024/04/09 02:48:28;;;;;;;15.90;3.57;;;16.90;37.40;;;;;;2191053;26;20689;-69
2024/04/09 02:49:28;;;;;;;18.97;3.47;;;16.80;37.20;;;;;;2186576;26;20280;-69
2024/04/09 02:50:29;;;;;;;17.10;3.30;;;16.80;37.70;;;;;;2205992;26;20568;-69
2024/04/09 02:51:30;;;;;;;19.10;3.93;;;16.90;37.90;;;;;;2205440;26;20279;-69
2024/04/09 02:52:30;;;;;;;10.17;2.30;;;16.80;37.40;;;;;;2187491;26;20276;-69
2024/04/09 02:53:32;;;;;;;20.50;3.83;;;16.70;37.20;;;;;;2206081;26;20610;-69
2024/04/09 02:54:33;;;;;;;16.27;3.30;;;16.70;37.50;;;;;;2203400;26;20286;-70
2024/04/09 02:55:33;;;;;;;15.90;3.10;;;16.70;37.60;;;;;;2205756;26;20622;-69
2024/04/09 02:56:34;;;;;;;13.70;3.73;;;16.70;37.80;;;;;;2205437;26;20318;-69
2024/04/09 02:57:35;;;;;;;12.67;3.50;;;16.70;37.80;;;;;;2204485;26;20309;-69
2024/04/09 02:58:36;;;;;;;14.97;3.27;;;16.60;37.60;;;;;;2205780;26;20271;-69
2024/04/09 02:59:36;;;;;;;20.20;3.20;;;16.50;37.80;;;;;;2191416;26;20267;-69
2024/04/09 03:00:42;;;;;;;16.83;3.83;;;16.50;38.00;;;;;;2203640;26;20271;-69
2024/04/09 03:01:42;;;;;;;16.63;3.70;;;16.50;39.30;;;;;;2201640;26;20338;-69
2024/04/09 03:02:43;;;;;;;18.43;3.27;;;16.40;38.30;;;;;;2198318;26;21133;-69
2024/04/09 03:03:44;;;;;;;16.73;3.57;;;16.40;38.40;;;;;;2230693;26;20264;-69
2024/04/09 03:04:45;;;;;;;25.30;4.73;;;16.30;38.40;;;;;;2206064;26;20542;-70
2024/04/09 03:05:46;;;;;;;20.63;3.73;;;16.30;38.60;;;;;;2177317;26;20276;-69
2024/04/09 03:06:47;;;;;;;12.13;2.83;;;16.30;38.60;;;;;;2205378;26;20267;-69
2024/04/09 03:07:47;;;;;;;15.90;3.17;;;16.30;38.60;;;;;;2191858;26;20378;-69
2024/04/09 03:08:48;;;;;;;18.00;3.83;;;16.30;38.60;;;;;;2191529;26;20311;-69
2024/04/09 03:09:48;;;;;;;10.33;3.13;;;16.30;38.50;;;;;;2232247;26;20458;-69
2024/04/09 03:10:51;;;;;;;11.63;2.77;;;16.30;38.50;;;;;;2232977;26;20273;-69
2024/04/09 03:11:52;;;;;;;17.23;2.90;;;16.30;38.80;;;;;;2205818;26;20267;-69
2024/04/09 03:12:53;;;;;;;16.53;3.67;;;16.40;38.70;;;;;;2191433;26;20676;-69
2024/04/09 03:13:53;;;;;;;18.43;4.27;;;16.40;38.60;;;;;;2190038;26;20377;-69
2024/04/09 03:14:54;;;;;;;14.87;3.57;;;16.40;38.50;;;;;;2177130;26;20508;-69
2024/04/09 03:15:55;;;;;;;16.63;3.03;;;16.30;38.50;;;;;;2178402;26;20273;-69
2024/04/09 03:16:56;;;;;;;19.83;3.73;;;16.30;38.60;;;;;;2217226;26;20310;-69
2024/04/09 03:17:56;;;;;;;13.33;3.53;;;16.30;38.70;;;;;;2206000;26;20297;-69
2024/04/09 03:18:57;;;;;;;16.93;3.67;;;16.30;38.90;;;;;;2202246;26;20710;-69
2024/04/09 03:19:58;;;;;;;18.30;3.33;;;16.30;38.80;;;;;;2216857;26;20329;-69
2024/04/09 03:20:58;;;;;;;18.00;3.07;;;16.30;38.80;;;;;;2187324;26;20284;-69
2024/04/09 03:21:59;;;;;;;15.43;3.43;;;16.30;39.00;;;;;;2201309;26;20330;-69
2024/04/09 03:23:00;;;;;;;13.93;3.40;;;16.30;38.90;;;;;;2201573;26;20313;-68
2024/04/09 03:24:00;;;;;;;11.90;3.33;;;16.30;39.10;;;;;;2200969;26;20309;-69
2024/04/09 03:25:01;;;;;;;14.07;3.37;;;16.30;38.90;;;;;;2214636;26;20680;-69
2024/04/09 03:26:02;;;;;;;11.57;3.03;;;16.40;39.00;;;;;;2218631;26;20288;-69
2024/04/09 03:27:03;;;;;;;12.23;3.30;;;16.40;38.90;;;;;;2203032;26;20235;-69
2024/04/09 03:28:03;;;;;;;16.33;3.57;;;16.30;38.80;;;;;;2199905;26;20993;-69
2024/04/09 03:29:04;;;;;;;16.77;3.43;;;16.20;39.00;;;;;;2229105;26;20315;-69
2024/04/09 03:30:08;;;;;;;17.57;3.03;;;16.20;39.20;;;;;;2199238;26;20239;-69
2024/04/09 03:31:10;;;;;;;12.97;3.20;;;16.20;39.50;;;;;;2186504;26;20237;-69
2024/04/09 03:32:10;;;;;;;15.50;3.33;;;16.10;39.50;;;;;;2227306;26;20488;-68
2024/04/09 03:33:11;;;;;;;23.83;3.97;;;16.10;39.80;;;;;;2220797;26;20529;-69
2024/04/09 03:34:11;;;;;;;12.70;3.00;;;16.10;39.70;;;;;;2207759;26;20231;-69
2024/04/09 03:35:12;;;;;;;12.57;2.83;;;16.10;39.80;;;;;;2199041;26;20220;-69
2024/04/09 03:36:13;;;;;;;13.20;2.63;;;16.10;40.10;;;;;;2213690;26;20233;-70
2024/04/09 03:37:13;;;;;;;11.37;3.13;;;16.20;39.90;;;;;;2215214;26;20261;-70
2024/04/09 03:38:14;;;;;;;10.50;2.83;;;16.20;39.60;;;;;;2190465;26;20232;-70
2024/04/09 03:39:15;;;;;;;16.03;3.00;;;16.20;39.70;;;;;;2177085;26;20736;-70
2024/04/09 03:40:16;;;;;;;11.70;2.80;;;16.20;39.50;;;;;;2175790;26;20225;-70
2024/04/09 03:41:16;;;;;;;19.00;3.33;;;16.20;39.70;;;;;;2206642;26;20500;-70
2024/04/09 03:42:17;;;;;;;13.97;3.93;;;16.20;39.90;;;;;;2211733;26;20219;-70
2024/04/09 03:43:19;;;;;;;12.30;3.03;;;16.10;39.90;;;;;;2191353;26;20570;-70
2024/04/09 03:44:20;;;;;;;12.03;2.80;;;16.10;40.10;;;;;;2205335;26;20224;-70
2024/04/09 03:45:21;;;;;;;10.33;3.20;;;16.10;40.00;;;;;;2191005;26;20539;-70
2024/04/09 03:46:21;;;;;;;13.77;2.87;;;16.10;40.30;;;;;;2206596;26;20289;-70
2024/04/09 03:47:22;;;;;;;21.30;3.50;;;16.10;41.40;;;;;;2215047;26;20342;-70
2024/04/09 03:48:23;;;;;;;18.30;3.50;;;16.10;40.40;;;;;;2191145;26;20319;-69
2024/04/09 03:49:24;;;;;;;13.63;2.90;;;16.10;40.50;;;;;;2206774;26;20301;-70
2024/04/09 03:50:24;;;;;;;22.70;3.00;;;16.00;40.40;;;;;;2202058;26;20501;-70
2024/04/09 03:51:25;;;;;;;13.90;3.67;;;16.10;40.70;;;;;;2175813;26;20273;-70
2024/04/09 03:52:26;;;;;;;12.53;3.30;;;16.10;40.50;;;;;;2196593;26;20425;-70
2024/04/09 03:53:27;;;;;;;16.67;4.03;;;16.00;40.40;;;;;;2204351;26;20270;-70
2024/04/09 03:54:28;;;;;;;20.60;4.27;;;16.10;40.80;;;;;;2212599;26;20269;-70
2024/04/09 03:55:29;;;;;;;20.63;3.53;;;16.00;40.70;;;;;;2228601;26;20504;-70
2024/04/09 03:56:29;;;;;;;14.30;3.73;;;16.00;40.80;;;;;;2214516;26;20270;-70
2024/04/09 03:57:30;;;;;;;13.27;3.10;;;16.00;41.10;;;;;;2200420;26;20268;-70
2024/04/09 03:58:37;;;;;;;14.67;3.27;;;16.00;41.10;;;;;;2201584;26;20278;-70
2024/04/09 03:59:38;;;;;;;17.23;3.23;;;16.00;41.30;;;;;;2213322;26;21073;-70
2024/04/09 04:00:39;;;;;;;12.80;2.83;;;16.00;41.10;;;;;;2228805;26;20584;-70
2024/04/09 04:01:39;;;;;;;17.67;2.57;;;16.10;41.30;;;;;;2204801;26;20271;-70
2024/04/09 04:02:40;;;;;;;15.57;3.57;;;16.10;41.10;;;;;;2205329;26;20270;-70
2024/04/09 04:03:45;;;;;;;10.73;3.00;;;16.10;41.10;;;;;;2190119;26;20280;-70
2024/04/09 04:04:46;;;;;;;12.80;3.40;;;16.00;41.20;;;;;;2193744;26;20271;-70
2024/04/09 04:05:56;;;;;;;13.00;3.43;;;16.00;41.10;;;;;;2227096;26;20625;-70
2024/04/09 04:06:57;;;;;;;18.63;3.57;;;16.00;41.40;;;;;;2210544;26;20436;-70
2024/04/09 04:07:58;;;;;;;17.17;3.30;;;15.90;41.70;;;;;;2214451;26;20559;-70
2024/04/09 04:08:58;;;;;;;15.93;3.40;;;16.00;41.80;;;;;;2215545;26;20360;-70
2024/04/09 04:09:59;;;;;;;10.17;3.23;;;16.00;41.70;;;;;;2205848;26;20794;-70
2024/04/09 04:11:05;;;;;;;15.77;3.43;;;16.00;41.90;;;;;;2205562;26;20301;-70
2024/04/09 04:12:06;;;;;;;17.93;4.17;;;15.90;41.70;;;;;;2218718;26;20868;-69
2024/04/09 04:13:08;;;;;;;12.20;3.20;;;16.00;41.80;;;;;;2219220;26;20579;-69
2024/04/09 04:14:08;;;;;;;18.77;3.43;;;16.10;42.10;;;;;;2221111;26;20230;-70
2024/04/09 04:15:09;;;;;;;19.13;3.53;;;16.00;42.10;;;;;;2218016;26;20457;-70
2024/04/09 04:16:13;;;;;;;13.23;2.83;;;16.00;42.10;;;;;;2205247;26;20290;-70
2024/04/09 04:17:14;;;;;;;16.73;3.23;;;15.90;42.20;;;;;;2199787;26;20287;-70
2024/04/09 04:18:14;;;;;;;12.93;3.03;;;16.00;42.20;;;;;;2196496;26;20463;-70
2024/04/09 04:19:16;;;;;;;16.13;3.30;;;15.90;42.10;;;;;;2182681;26;20233;-70
2024/04/09 04:20:17;;;;;;;15.70;3.77;;;15.90;42.30;;;;;;2203734;26;20242;-70
2024/04/09 04:21:20;;;;;;;13.60;3.23;;;16.00;42.50;;;;;;2231611;26;20451;-70
2024/04/09 04:22:21;;;;;;;15.40;3.57;;;16.00;43.80;;;;;;2204547;26;20873;-70
2024/04/09 04:23:22;;;;;;;13.90;3.33;;;15.90;42.70;;;;;;2204908;26;20553;-69
2024/04/09 04:24:22;;;;;;;14.93;3.73;;;15.90;43.10;;;;;;2191076;26;21081;-70
2024/04/09 04:25:23;;;;;;;14.23;3.30;;;15.90;43.40;;;;;;2193255;26;20638;-70
2024/04/09 04:26:25;;;;;;;10.27;3.10;;;15.80;43.70;;;;;;2207786;26;20302;-70
2024/04/09 04:27:26;;;;;;;17.13;4.30;;;15.70;44.00;;;;;;2191227;26;20264;-70
2024/04/09 04:28:27;;;;;;;12.17;2.43;;;15.70;44.10;;;;;;2198487;26;20509;-70
2024/04/09 04:29:27;;;;;;;22.83;3.93;;;15.70;44.20;;;;;;2227108;26;20502;-70
2024/04/09 04:30:29;;;;;;;15.80;3.50;;;15.70;44.20;;;;;;2214914;26;20271;-70
2024/04/09 04:31:30;;;;;;;14.20;3.67;;;15.80;44.40;;;;;;2191999;26;20268;-70
2024/04/09 04:32:31;;;;;;;10.20;3.00;;;15.70;44.40;;;;;;2190821;26;20592;-70
2024/04/09 04:33:31;;;;;;;21.03;3.43;;;15.70;44.40;;;;;;2215356;26;20742;-70
2024/04/09 04:34:32;;;;;;;15.77;4.17;;;15.70;44.50;;;;;;2214594;26;20300;-70
2024/04/09 04:35:33;;;;;;;17.77;3.30;;;15.70;44.50;;;;;;2171620;27;20280;-70
2024/04/09 04:36:33;;;;;;;14.40;3.70;;;15.70;44.90;;;;;;2185745;26;20272;-69
2024/04/09 04:37:34;;;;;;;17.17;3.83;;;15.70;44.60;;;;;;2200069;26;20271;-70
2024/04/09 04:38:35;;;;;;;14.30;3.60;;;15.60;44.80;;;;;;2228383;26;20724;-70
2024/04/09 04:39:36;;;;;;;14.07;3.37;;;15.60;45.20;;;;;;2213935;26;20324;-70
2024/04/09 04:40:37;;;;;;;24.07;4.40;;;15.60;45.60;;;;;;2198453;26;20557;-70
2024/04/09 04:41:37;;;;;;;21.80;3.93;;;15.50;45.70;;;;;;2201095;26;20840;-70
2024/04/09 04:42:38;;;;;;;18.20;3.20;;;15.50;45.80;;;;;;2205883;26;20313;-70
2024/04/09 04:43:40;;;;;;;15.97;3.43;;;15.50;45.90;;;;;;2206880;26;20274;-69
2024/04/09 04:44:40;;;;;;;21.97;3.83;;;15.50;46.10;;;;;;2204220;26;20737;-70
2024/04/09 04:45:42;;;;;;;16.23;3.57;;;15.60;46.20;;;;;;2204657;26;20502;-70
2024/04/09 04:46:43;;;;;;;20.13;3.87;;;15.50;46.40;;;;;;2206476;26;21219;-70
2024/04/09 04:47:43;;;;;;;14.53;3.00;;;15.50;46.70;;;;;;2211608;26;20556;-69
2024/04/09 04:48:44;;;;;;;15.73;2.93;;;15.50;47.10;;;;;;2239418;26;20381;-70
2024/04/09 04:49:45;;;;;;;13.90;3.60;;;15.60;47.10;;;;;;2204189;26;20677;-70
2024/04/09 04:50:47;;;;;;;11.33;4.07;;;15.50;46.90;;;;;;2189476;26;20272;-70
2024/04/09 04:51:47;;;;;;;20.27;3.50;;;15.50;47.30;;;;;;2225350;26;20261;-70
2024/04/09 04:52:48;;;;;;;18.37;4.30;;;15.50;47.20;;;;;;2240424;26;20497;-70
2024/04/09 04:53:49;;;;;;;12.23;3.50;;;15.40;47.50;;;;;;2234243;26;20295;-70
2024/04/09 04:54:50;;;;;;;18.13;3.97;;;15.50;47.70;;;;;;2204834;26;20751;-70
2024/04/09 04:55:52;;;;;;;13.60;3.67;;;15.40;47.50;;;;;;2206387;26;20607;-70
2024/04/09 04:56:53;;;;;;;20.63;4.17;;;15.40;47.90;;;;;;2204589;26;21017;-70
2024/04/09 04:57:54;;;;;;;17.03;3.60;;;15.40;48.10;;;;;;2205367;26;20505;-70
2024/04/09 04:58:55;;;;;;;18.90;4.33;;;15.40;48.30;;;;;;2205029;26;20335;-70
2024/04/09 04:59:56;;;;;;;19.43;4.43;;;15.40;48.30;;;;;;2192059;26;20621;-70
2024/04/09 05:00:57;;;;;;;13.50;3.83;;;15.30;48.30;;;;;;2176910;26;20273;-70
2024/04/09 05:01:58;;;;;;;18.13;3.57;;;15.30;48.10;;;;;;2201426;26;20546;-70
2024/04/09 05:02:59;;;;;;;16.23;3.93;;;15.40;48.20;;;;;;2218917;26;20261;-70
2024/04/09 05:04:00;;;;;;;15.47;4.10;;;15.30;48.60;;;;;;2215275;26;20496;-70
2024/04/09 05:05:00;;;;;;;9.27;3.13;;;15.40;49.80;;;;;;2215076;26;20496;-70
2024/04/09 05:06:07;;;;;;;19.47;4.17;;;15.40;48.80;;;;;;2199125;26;20904;-70
2024/04/09 05:07:08;;;;;;;17.13;3.50;;;15.40;49.10;;;;;;2229785;26;20241;-70
2024/04/09 05:08:08;;;;;;;17.70;3.43;;;15.40;49.00;;;;;;2228799;26;20459;-70
2024/04/09 05:09:11;;;;;;;16.13;3.47;;;15.30;49.10;;;;;;2201916;26;20461;-70
2024/04/09 05:10:15;;;;;;;12.07;3.13;;;15.30;49.50;;;;;;2210387;26;20230;-70
2024/04/09 05:11:16;;;;;;;15.87;3.00;;;15.30;49.60;;;;;;2206112;26;20449;-70
2024/04/09 05:12:17;;;;;;;20.90;4.13;;;15.20;50.00;;;;;;2193555;26;20828;-70
2024/04/09 05:13:18;;;;;;;12.63;3.60;;;15.10;49.90;;;;;;2192367;26;20455;-70
2024/04/09 05:14:19;;;;;;;19.83;3.83;;;15.20;50.20;;;;;;2214238;26;20694;-70
2024/04/09 05:15:21;;;;;;;17.67;3.67;;;15.20;50.30;;;;;;2229499;26;20559;-70